Tiempo atmosférico en la estación meteorológica de Zorita, Cáceres (413 m.)



Fecha
DESCASC
Temp. máxima en grados centígrados (hora)
DESCASC
Temp. mínima en grados centígrados (hora)
DESCASC
Temp. media en grados centígrados
DESCASC
Racha de viento máxima en m/sg (hora)
DESCASC
Velocidad máxima media en intervalos de 10 minutos(hora)
DESCASC
Precipitaciones diarias en mm
DESCASC
Precipitaciones de 00:00 a 06:00 en mm
DESCASC
Precipitaciones de 06:00 a 12:00 en mm
DESCASC
Precipitaciones de 12:00 a 18:00 en mm
DESCASC
Precipitaciones de 18:00 a 24:00 en mm
DESCASC
08-12-2019 10.4 (23:50) 5.6 (07:20) 8 3.89 (23:59) 2.5 (21:40) 1.2 0 0 1.2 0
07-12-2019 14.8 (14:50) 6.2 (08:20) 10.5 6.67 (15:10) 5.28 (15:10) 0 0 0 0 0
06-12-2019 16 (16:10) 8.8 (08:40) 12.4 9.72 (12:00) 6.67 (12:50) 0 0 0 0 0
05-12-2019 15.2 (15:10) 6.8 (00:00) 11 10 (13:40) 6.94 (15:40) 0 0 0 0 0
04-12-2019 13.9 (15:00) 6 (00:00) 9.9 8.89 (01:10) 6.67 (02:00) 0.6 0 0 0.6 0
03-12-2019 14.5 (15:20) 8.2 (00:00) 11.3 11.11 (02:00) 8.06 (11:00) 0 0 0 0 0
02-12-2019 12.9 (14:20) 7.3 (00:00) 10.1 13.33 (13:10) 8.89 (14:30) 0 0 0 0 0
01-12-2019 13.2 (15:20) 7.8 (00:00) 10.5 9.17 (10:50) 6.67 (10:40) 3.8 0 3.8 0 0
30-11-2019 15 (14:20) 9.3 (00:00) 12.2 12.22 (20:00) 8.61 (20:00) 1.6 0 0 0 1.6
29-11-2019 16.2 (14:10) 12 (00:00) 14.1 6.39 (15:50) 4.17 (16:00) 0 0 0 0 0
28-11-2019 14.5 (15:50) 8.3 (00:00) 11.4 6.67 (14:20) 5 (16:40) 0.2 0 0 0.2 0
27-11-2019 15.1 (14:30) 9.6 (00:00) 12.4 9.72 (15:40) 6.67 (13:40) 0.2 0.2 0 0 0
26-11-2019 15.5 (15:00) 11 (00:00) 13.3 8.33 (20:40) 6.11 (15:20) 6 0.2 0.6 3.6 1.6
25-11-2019 16.5 (15:50) 10.6 (00:00) 13.6 8.61 (14:20) 6.39 (14:20) 8.4 6.4 2 0 0
24-11-2019 13.3 (14:30) 5.2 (00:00) 9.3 7.22 (14:40) 5 (15:30) 0 0 0 0 0
23-11-2019 13.2 (14:40) 6.9 (00:00) 10 17.5 (01:00) 11.67 (01:00) 1.6 1.6 0 0 0
22-11-2019 16.2 (15:40) 9.8 (00:00) 13 16.11 (16:30) 11.67 (16:30) 26.4 0.6 16.4 9.4 0
21-11-2019 12.1 (16:20) 8.4 (00:00) 10.3 3.89 (22:20) 3.06 (22:20) 6.2 0.2 5.8 0.2 0
20-11-2019 8.8 (00:00) 6.8 (00:00) 7.8 7.5 (12:50) 5.56 (12:50) 6 0 2.8 3 0.2
19-11-2019 10.3 (15:50) 5.5 (00:00) 7.9 6.11 (02:50) 4.17 (02:50) 0 0 0 0 0
18-11-2019 13.3 (15:30) 5.1 (00:00) 9.2 12.5 (05:00) 9.44 (04:10) 0.2 0.2 0 0 0
17-11-2019 11.1 (21:40) 4 (00:00) 7.6 11.11 (21:40) 8.33 (21:40) 15 0 3.8 2.2 9
16-11-2019 12.1 (15:10) 1.1 (00:00) 6.6 10.83 (02:40) 8.61 (02:30) 0 0 0 0 0
15-11-2019 11.3 (14:50) 3.3 (00:00) 7.3 13.33 (10:00) 10.83 (10:00) 0 0 0 0 0
14-11-2019 11.5 (15:50) 6.7 (00:00) 9.1 19.17 (20:00) 12.22 (20:10) 4 0 4 0 0
13-11-2019 19.7 (15:20) 10.4 (00:00) 15.1 13.61 (12:40) 10 (12:20) 0.2 0.2 0 0 0
12-11-2019 15.5 (15:40) 5.9 (00:00) 10.7 11.11 (16:00) 7.78 (17:40) 0 0 0 0 0

Gráficas

Temp. máximas Temp. mínimas Temp. medias Precipitaciones Rachas de viento máximas Velocidades máximas media en intervalos de 10 minutos

Datos horarios

Fecha y hora oficial Temperatura (ºC) Velocidad del viento (km/h) Dirección del viento Racha (km/h) Dirección de racha Precipitación (mm) Presión (hPa) Tendencia (hPa) Humedad (%)
2019-12-11 23:00:00 6.7 21 Noroeste 31 Noroeste 0 -- -- 70
2019-12-11 22:00:00 6.9 15 Noroeste 32 Noroeste 0 -- -- 68
2019-12-11 21:00:00 7.9 19 Noroeste 35 Noroeste 0 -- -- 65
2019-12-11 20:00:00 7.9 21 Noroeste 47 Noroeste 0 -- -- 65
2019-12-11 19:00:00 9.1 34 Noroeste 48 Noroeste 0 -- -- 59
2019-12-11 18:00:00 10.1 32 Noroeste 50 Noroeste 0 -- -- 57
2019-12-11 17:00:00 11.5 40 Noroeste 53 Noroeste 0 -- -- 55
2019-12-11 16:00:00 11.8 43 Noroeste 57 Noroeste 0.2 -- -- 66
2019-12-11 15:00:00 11.1 33 Noroeste 49 Noroeste 0 -- -- 79
2019-12-11 14:00:00 10 26 Noroeste 36 Noroeste 0 -- -- 90
2019-12-11 13:00:00 7.7 8 Oeste 14 Oeste 0 -- -- 99
2019-12-11 12:00:00 6.6 6 Oeste 8 Oeste 0.2 -- -- 99
2019-12-11 11:00:00 5.9 2 Sudoeste 5 Oeste 2 -- -- 99
2019-12-11 10:00:00 5.4 0 Calma 4 Este 0 -- -- 99
2019-12-11 09:00:00 4.9 0 Calma 7 Nordeste 0 -- -- 99
2019-12-11 08:00:00 4.4 4 Este 6 Este 0 -- -- 98
2019-12-11 07:00:00 4.6 6 Este 9 Este 0 -- -- 98
2019-12-11 06:00:00 4.7 0 Calma 8 Sudeste 0 -- -- 97
2019-12-11 05:00:00 5.4 5 Sudoeste 6 Sudoeste 0 -- -- 96
2019-12-11 04:00:00 5.9 2 Oeste 9 Noroeste 0 -- -- 93
2019-12-11 03:00:00 5.2 4 Oeste 6 Oeste 0 -- -- 95
2019-12-11 02:00:00 5.7 2 Sudeste 12 Noroeste 0 -- -- 91
2019-12-11 01:00:00 6.5 8 Noroeste 10 Noroeste 0 -- -- 91
2019-12-11 00:00:00 6.6 2 Nordeste 5 Nordeste 0 -- -- 90
2019-12-10 23:00:00 7.1 3 Este 6 Noroeste 0 -- -- 90
2019-12-10 22:00:00 7.4 6 Noroeste 10 Noroeste 0 -- -- 91
2019-12-10 21:00:00 7.9 7 Noroeste 13 Noroeste 0 -- -- 91
2019-12-10 20:00:00 8.1 8 Noroeste 15 Noroeste 0 -- -- 92
2019-12-10 19:00:00 8.2 8 Noroeste 10 Noroeste 0 -- -- 89
2019-12-10 18:00:00 9.7 3 Este 9 Sudeste 0 -- -- 85
2019-12-10 17:00:00 10.4 8 Sudeste 10 Sudeste 0 -- -- 81
2019-12-10 16:00:00 11.1 5 Sudeste 9 Sudeste 0 -- -- 83
2019-12-10 15:00:00 10.9 2 Noroeste 15 Oeste 0 -- -- 77
2019-12-10 14:00:00 9.9 6 Oeste 13 Oeste 0 -- -- 86
2019-12-10 13:00:00 7.8 5 Oeste 12 Oeste 0 -- -- 96
2019-12-10 12:00:00 6.1 4 Noroeste 8 Sudeste 0 -- -- 98
2019-12-10 11:00:00 5.7 8 Este 13 Este 0 -- -- 98
2019-12-10 10:00:00 6.3 2 Norte 11 Oeste 0 -- -- 98
2019-12-10 09:00:00 6.2 3 Norte 9 Este 0 -- -- 98
2019-12-10 08:00:00 6.3 4 Nordeste 19 Este 0 -- -- 96
2019-12-10 07:00:00 6.6 13 Este 18 Este 0 -- -- 95
2019-12-10 06:00:00 7.1 11 Este 15 Este 0 -- -- 94
2019-12-10 05:00:00 7.2 6 Este 9 Este 0 -- -- 95
2019-12-10 04:00:00 8 5 Nordeste 21 Este 0 -- -- 91
2019-12-10 03:00:00 9.3 11 Este 19 Este 0 -- -- 90
2019-12-10 02:00:00 9.5 12 Este 19 Nordeste 0 -- -- 91
2019-12-10 01:00:00 8.7 10 Nordeste 16 Este 0 -- -- 95
2019-12-10 00:00:00 8.4 7 Nordeste 8 Nordeste 0 -- -- 95
2019-12-09 23:00:00 9.5 5 Este 8 Nordeste 0 -- -- 93
2019-12-09 22:00:00 9.7 3 Norte 12 Norte 0 -- -- 93
2019-12-09 21:00:00 9.6 10 Noroeste 12 Noroeste 0 -- -- 94
2019-12-09 20:00:00 9.6 2 Nordeste 5 Este 0 -- -- 92
2019-12-09 19:00:00 10.2 0 Calma 9 Este 0 -- -- 90
2019-12-09 18:00:00 10.9 6 Sudeste 9 Sudeste 0 -- -- 90
2019-12-09 17:00:00 11.3 7 Sudeste 13 Sudeste 0 -- -- 88
2019-12-09 16:00:00 12.1 5 Sudeste 10 Este 0 -- -- 83
2019-12-09 15:00:00 11.7 4 Este 10 Este 0 -- -- 87
2019-12-09 14:00:00 11 4 Este 12 Este 0 -- -- 91
2019-12-09 13:00:00 10.9 10 Sudeste 16 Sudeste 0 -- -- 92
2019-12-09 12:00:00 10.8 8 Este 13 Este 0 -- -- 93
2019-12-09 11:00:00 10.4 6 Este 12 Este 0 -- -- 96
2019-12-09 10:00:00 10.1 7 Nordeste 12 Este 0 -- -- 95
2019-12-09 09:00:00 9.9 6 Nordeste 14 Este 0 -- -- 95
2019-12-09 08:00:00 9.9 9 Nordeste 13 Nordeste 0 -- -- 96
2019-12-09 07:00:00 9.7 7 Nordeste 13 Nordeste 0 -- -- 98
2019-12-09 06:00:00 9.4 9 Nordeste 17 Nordeste 0 -- -- 98
2019-12-09 05:00:00 10.5 9 Noroeste 16 Noroeste 0 -- -- 95
2019-12-09 04:00:00 10.8 12 Noroeste 22 Noroeste 0 -- -- 97
2019-12-09 03:00:00 11.1 14 Noroeste 26 Noroeste 0 -- -- 98
2019-12-09 02:00:00 11.1 19 Noroeste 25 Noroeste 0 -- -- 98
2019-12-09 01:00:00 10 7 Oeste 10 Oeste 0 -- -- 97
2019-12-09 00:00:00 10.3 9 Noroeste 14 Noroeste 0 -- -- 98
2019-12-08 23:00:00 9.6 3 Sudoeste 11 Oeste 0 -- -- 98
2019-12-08 22:00:00 9.5 9 Oeste 11 Oeste 0 -- -- 97
2019-12-08 21:00:00 9.4 8 Sudoeste 10 Oeste 0 -- -- 97
2019-12-08 20:00:00 9.2 4 Noroeste 6 Noroeste 0 -- -- 97
2019-12-08 19:00:00 9.3 4 Oeste 6 Sudoeste 0 -- -- 95
2019-12-08 18:00:00 9.6 4 Sudoeste 10 Sudoeste 0.6 -- -- 94
2019-12-08 17:00:00 9.8 5 Sudoeste 8 Sudoeste 0.6 -- -- 91
2019-12-08 16:00:00 10.1 5 Sudoeste 10 Sudoeste 0 -- -- 87
2019-12-08 15:00:00 10.2 6 Sudoeste 10 Sudoeste 0 -- -- 86
2019-12-08 14:00:00 9.8 5 Oeste 9 Este 0 -- -- 87
2019-12-08 13:00:00 9 5 Sudeste 9 Sudeste 0 -- -- 91
2019-12-08 12:00:00 8.2 6 Este 10 Este 0 -- -- 93
2019-12-08 11:00:00 8 4 Este 9 Sudeste 0 -- -- 91
2019-12-08 10:00:00 7.1 5 Este 9 Sudeste 0 -- -- 93
2019-12-08 09:00:00 5.9 5 Este 7 Este 0 -- -- 96
2019-12-08 08:00:00 5.6 0 Calma 6 Este 0 -- -- 94
2019-12-08 07:00:00 6.1 0 Calma 9 Norte 0 -- -- 92
2019-12-08 06:00:00 6.1 6 Nordeste 7 Nordeste 0 -- -- 93
2019-12-08 05:00:00 6.5 0 Calma 5 Nordeste 0 -- -- 94
2019-12-08 04:00:00 6.7 4 Nordeste 8 Nordeste 0 -- -- 91
2019-12-08 03:00:00 7.1 7 Nordeste 9 Nordeste 0 -- -- 91
2019-12-08 02:00:00 7.8 3 Este 6 Sur 0 -- -- 89
2019-12-08 01:00:00 7.9 4 Oeste 8 Norte 0 -- -- 87
2019-12-08 00:00:00 8.3 2 Nordeste 9 Norte 0 -- -- 86
2019-12-07 23:00:00 9.3 8 Nordeste 11 Nordeste 0 -- -- 81
2019-12-07 22:00:00 9.8 8 Nordeste 13 Nordeste 0 -- -- 80
2019-12-07 21:00:00 9.7 5 Nordeste 7 Nordeste 0 -- -- 79
2019-12-07 20:00:00 10.4 0 Calma 11 Noroeste 0 -- -- 75
2019-12-07 19:00:00 11.5 13 Noroeste 16 Noroeste 0 -- -- 71
2019-12-07 18:00:00 12.4 9 Noroeste 14 Oeste 0 -- -- 68
2019-12-07 17:00:00 14.7 11 Oeste 17 Oeste 0 -- -- 58
2019-12-07 16:00:00 14.6 14 Oeste 24 Oeste 0 -- -- 58
2019-12-07 15:00:00 14.7 14 Oeste 23 Oeste 0 -- -- 60
2019-12-07 14:00:00 14.1 8 Sudoeste 15 Oeste 0 -- -- 65
2019-12-07 13:00:00 13.4 6 Sudoeste 14 Oeste 0 -- -- 69
2019-12-07 12:00:00 12.2 4 Sudeste 12 Este 0 -- -- 70
2019-12-07 11:00:00 10.6 7 Este 19 Este 0 -- -- 74
2019-12-07 10:00:00 8.9 10 Este 14 Este 0 -- -- 80
2019-12-07 09:00:00 6.7 4 Nordeste 9 Este 0 -- -- 84
2019-12-07 08:00:00 7.6 4 Este 12 Noroeste 0 -- -- 80
2019-12-07 07:00:00 6.3 5 Norte 13 Noroeste 0 -- -- 84
2019-12-07 06:00:00 7.6 5 Este 8 Este 0 -- -- 80
2019-12-07 05:00:00 8.3 6 Sudeste 8 Sudeste 0 -- -- 76
2019-12-07 04:00:00 8.2 7 Noroeste 11 Noroeste 0 -- -- 78
2019-12-07 03:00:00 7.5 4 Noroeste 8 Noroeste 0 -- -- 81
2019-12-07 02:00:00 8.1 4 Nordeste 9 Noroeste 0 -- -- 78
2019-12-07 01:00:00 8.3 6 Noroeste 12 Noroeste 0 -- -- 78
2019-12-07 00:00:00 9.4 9 Norte 23 Nordeste 0 -- -- 75
2019-12-06 23:00:00 10.8 18 Nordeste 27 Nordeste 0 -- -- 69
2019-12-06 22:00:00 11.6 14 Nordeste 18 Nordeste 0 -- -- 66
2019-12-06 21:00:00 10.5 9 Nordeste 12 Nordeste 0 -- -- 72
2019-12-06 20:00:00 10.6 6 Norte 8 Norte 0 -- -- 72
2019-12-06 19:00:00 11.7 5 Norte 8 Norte 0 -- -- 69
2019-12-06 18:00:00 14.6 5 Noroeste 9 Noroeste 0 -- -- 57
2019-12-06 17:00:00 15.7 7 Sudeste 22 Sudeste 0 -- -- 52
2019-12-06 16:00:00 15.9 10 Sudeste 25 Este 0 -- -- 53
2019-12-06 15:00:00 15.6 15 Este 25 Sudeste 0 -- -- 52
2019-12-06 14:00:00 15.2 17 Este 30 Este 0 -- -- 53
2019-12-06 13:00:00 14.5 21 Este 35 Sudeste 0 -- -- 56
2019-12-06 12:00:00 14.1 23 Este 35 Este 0 -- -- 57
2019-12-06 11:00:00 13.1 16 Este 28 Este 0 -- -- 62
2019-12-06 10:00:00 11.3 8 Este 19 Este 0 -- -- 69
2019-12-06 09:00:00 9.2 17 Este 24 Este 0 -- -- 75
2019-12-06 08:00:00 9.3 17 Este 28 Este 0 -- -- 74
2019-12-06 07:00:00 10 19 Este 27 Nordeste 0 -- -- 72
2019-12-06 06:00:00 10.1 15 Este 27 Este 0 -- -- 72
2019-12-06 05:00:00 10.2 19 Nordeste 30 Nordeste 0 -- -- 73
2019-12-06 04:00:00 9.7 17 Este 27 Este 0 -- -- 77
2019-12-06 03:00:00 9.7 14 Este 31 Este 0 -- -- 75
2019-12-06 02:00:00 9.9 21 Este 27 Este 0 -- -- 75
2019-12-06 01:00:00 9.7 15 Este 23 Este 0 -- -- 74
2019-12-06 00:00:00 10.8 8 Este 24 Nordeste 0 -- -- 69
2019-12-05 23:00:00 12 14 Nordeste 20 Nordeste 0 -- -- 64
2019-12-05 22:00:00 11.8 14 Nordeste 21 Nordeste 0 -- -- 64
2019-12-05 21:00:00 11.8 9 Nordeste 25 Nordeste 0 -- -- 64
2019-12-05 20:00:00 12.4 19 Nordeste 27 Este 0 -- -- 62
2019-12-05 19:00:00 12.7 20 Este 32 Este 0 -- -- 61
2019-12-05 18:00:00 13.4 18 Este 27 Este 0 -- -- 57
2019-12-05 17:00:00 14 19 Nordeste 32 Este 0 -- -- 54
2019-12-05 16:00:00 15 22 Nordeste 36 Este 0 -- -- 49
2019-12-05 15:00:00 15.1 22 Este 35 Este 0 -- -- 53
2019-12-05 14:00:00 14.8 23 Este 36 Este 0 -- -- 53
2019-12-05 13:00:00 14.6 19 Este 32 Este 0 -- -- 57
2019-12-05 12:00:00 14 22 Este 32 Este 0 -- -- 58
2019-12-05 11:00:00 12.5 4 Este 10 Este 0 -- -- 65
2019-12-05 10:00:00 10.8 6 Norte 16 Nordeste 0 -- -- 75
2019-12-05 09:00:00 8.9 8 Nordeste 16 Nordeste 0 -- -- 77
2019-12-05 08:00:00 6.9 0 Calma 12 Sudoeste 0 -- -- 88
2019-12-05 07:00:00 7.9 4 Sudeste 9 Sudeste 0 -- -- 83
2019-12-05 06:00:00 8.3 6 Norte 17 Noroeste 0 -- -- 83
2019-12-05 05:00:00 8.2 13 Noroeste 17 Noroeste 0 -- -- 86
2019-12-05 04:00:00 9.1 6 Norte 14 Noroeste 0 -- -- 83
2019-12-05 03:00:00 8.8 10 Noroeste 20 Noroeste 0 -- -- 82
2019-12-05 02:00:00 8.8 8 Norte 15 Noroeste 0 -- -- 81
2019-12-05 01:00:00 8.6 12 Noroeste 15 Noroeste 0 -- -- 85
2019-12-05 00:00:00 9.4 6 Noroeste 9 Noroeste 0 -- -- 84
2019-12-04 23:00:00 10 5 Noroeste 7 Oeste 0 -- -- 88
2019-12-04 22:00:00 10.4 3 Norte 6 Noroeste 0 -- -- 84
2019-12-04 21:00:00 10.5 0 Calma 6 Noroeste 0 -- -- 87
2019-12-04 20:00:00 10.4 4 Noroeste 11 Norte 0 -- -- 86
2019-12-04 19:00:00 10.5 4 Norte 9 Nordeste 0 -- -- 85
2019-12-04 18:00:00 11 7 Nordeste 10 Nordeste 0.4 -- -- 81
2019-12-04 17:00:00 11.3 6 Noroeste 19 Noroeste 0.2 -- -- 81
2019-12-04 16:00:00 12.7 13 Noroeste 24 Noroeste 0 -- -- 68
2019-12-04 15:00:00 13.9 14 Noroeste 21 Oeste 0 -- -- 59
2019-12-04 14:00:00 12.6 10 Oeste 16 Noroeste 0 -- -- 71
2019-12-04 13:00:00 10.7 13 Noroeste 16 Noroeste 0 -- -- 78
2019-12-04 12:00:00 10.1 8 Oeste 17 Oeste 0 -- -- 79
2019-12-04 11:00:00 9.9 4 Sudoeste 9 Sudoeste 0 -- -- 77
2019-12-04 10:00:00 8.7 2 Noroeste 6 Noroeste 0 -- -- 82
2019-12-04 09:00:00 6.5 2 Sudeste 7 Norte 0 -- -- 91
2019-12-04 08:00:00 6.7 8 Sudoeste 9 Sudoeste 0 -- -- 90
2019-12-04 07:00:00 7.8 4 Noroeste 6 Noroeste 0 -- -- 84
2019-12-04 06:00:00 7.7 3 Noroeste 12 Oeste 0 -- -- 88
2019-12-04 05:00:00 8.2 3 Nordeste 10 Este 0 -- -- 84
2019-12-04 04:00:00 8 7 Este 14 Este 0 -- -- 83
2019-12-04 03:00:00 8.5 13 Este 27 Este 0 -- -- 78
2019-12-04 02:00:00 8.9 24 Este 32 Este 0 -- -- 75
2019-12-04 01:00:00 9.9 21 Este 30 Este 0 -- -- 74
2019-12-04 00:00:00 10.2 17 Este 30 Este 0 -- -- 74
2019-12-03 23:00:00 10.6 20 Este 30 Nordeste 0 -- -- 71
2019-12-03 22:00:00 10.9 17 Nordeste 26 Nordeste 0 -- -- 70
2019-12-03 21:00:00 10.9 17 Nordeste 27 Este 0 -- -- 70
2019-12-03 20:00:00 10.3 11 Nordeste 23 Este 0 -- -- 72
2019-12-03 19:00:00 11.2 19 Este 30 Este 0 -- -- 67
2019-12-03 18:00:00 11.7 19 Este 31 Este 0 -- -- 65
2019-12-03 17:00:00 13.3 21 Este 30 Este 0 -- -- 60
2019-12-03 16:00:00 14.2 21 Este 30 Este 0 -- -- 59
2019-12-03 15:00:00 14.4 17 Este 23 Nordeste 0 -- -- 58
2019-12-03 14:00:00 14 14 Este 30 Este 0 -- -- 60
2019-12-03 13:00:00 13.4 19 Este 32 Este 0 -- -- 61
2019-12-03 12:00:00 12.8 23 Este 39 Este 0 -- -- 62
2019-12-03 11:00:00 12.4 29 Este 39 Este 0 -- -- 61
2019-12-03 10:00:00 11.4 15 Este 24 Este 0 -- -- 65
2019-12-03 09:00:00 10 12 Nordeste 24 Nordeste 0 -- -- 68
2019-12-03 08:00:00 8.3 0 Calma 8 Nordeste 0 -- -- 73
2019-12-03 07:00:00 8.3 5 Norte 8 Noroeste 0 -- -- 72
2019-12-03 06:00:00 9.6 5 Este 27 Este 0 -- -- 67
2019-12-03 05:00:00 10.4 18 Nordeste 34 Este 0 -- -- 64
2019-12-03 04:00:00 10.7 22 Nordeste 31 Este 0 -- -- 63
2019-12-03 03:00:00 10.7 14 Nordeste 36 Este 0 -- -- 64
2019-12-03 02:00:00 11.2 27 Este 40 Este 0 -- -- 62
2019-12-03 01:00:00 10.1 18 Este 30 Este 0 -- -- 66
2019-12-03 00:00:00 10.6 23 Este 36 Este 0 -- -- 65
2019-12-02 23:00:00 10.5 21 Este 28 Nordeste 0 -- -- 65
2019-12-02 22:00:00 11.1 17 Nordeste 28 Este 0 -- -- 62
2019-12-02 21:00:00 11.9 19 Este 37 Nordeste 0 -- -- 60
2019-12-02 20:00:00 12.1 21 Nordeste 38 Nordeste 0 -- -- 61
2019-12-02 19:00:00 11.5 15 Nordeste 32 Nordeste 0 -- -- 64
2019-12-02 18:00:00 11.7 24 Nordeste 40 Nordeste 0 -- -- 65
2019-12-02 17:00:00 11.9 27 Este 42 Este 0 -- -- 63
2019-12-02 16:00:00 12.5 30 Este 46 Este 0 -- -- 61
2019-12-02 15:00:00 12.6 30 Este 46 Este 0 -- -- 58
2019-12-02 14:00:00 11.8 27 Nordeste 48 Este 0 -- -- 62
2019-12-02 13:00:00 11.9 31 Este 45 Este 0 -- -- 63
2019-12-02 12:00:00 11.1 26 Nordeste 43 Nordeste 0 -- -- 69
2019-12-02 11:00:00 11.1 25 Nordeste 42 Nordeste 0 -- -- 69
2019-12-02 10:00:00 11.1 24 Este 40 Este 0 -- -- 69
2019-12-02 09:00:00 9.6 16 Este 30 Este 0 -- -- 73
2019-12-02 08:00:00 9.2 14 Este 28 Nordeste 0 -- -- 76
2019-12-02 07:00:00 9.5 18 Nordeste 33 Este 0 -- -- 78
2019-12-02 06:00:00 9 5 Nordeste 15 Nordeste 0 -- -- 83
2019-12-02 05:00:00 8.5 5 Norte 15 Nordeste 0 -- -- 84
2019-12-02 04:00:00 8.3 8 Nordeste 12 Nordeste 0 -- -- 86
2019-12-02 03:00:00 8.1 7 Nordeste 12 Nordeste 0 -- -- 87
2019-12-02 02:00:00 8.5 7 Este 10 Norte 0 -- -- 88
2019-12-02 01:00:00 7.3 6 Noroeste 13 Noroeste 0 -- -- 93
2019-12-02 00:00:00 7.8 6 Noroeste 12 Nordeste 0 -- -- 89
2019-12-01 23:00:00 9 10 Este 17 Nordeste 0 -- -- 88
2019-12-01 22:00:00 9.2 13 Nordeste 17 Este 0 -- -- 85
2019-12-01 21:00:00 9.1 12 Nordeste 18 Nordeste 0 -- -- 85
2019-12-01 20:00:00 9 4 Noroeste 8 Noroeste 0 -- -- 91
2019-12-01 19:00:00 9.9 2 Este 18 Oeste 0 -- -- 87
2019-12-01 18:00:00 11.1 7 Noroeste 18 Noroeste 0 -- -- 80
2019-12-01 17:00:00 11.5 14 Sudoeste 22 Sudoeste 0 -- -- 80
2019-12-01 16:00:00 12.7 16 Sudoeste 25 Sudoeste 0 -- -- 75
2019-12-01 15:00:00 13 18 Sudoeste 27 Sudoeste 0 -- -- 77
2019-12-01 14:00:00 12.4 19 Sudoeste 26 Sudoeste 0 -- -- 85
2019-12-01 13:00:00 11.6 21 Sudoeste 26 Sudoeste 0 -- -- 91
2019-12-01 12:00:00 10.3 14 Sudoeste 26 Sudoeste 0.4 -- -- 97
2019-12-01 11:00:00 9.9 21 Sudoeste 33 Sudoeste 1.6 -- -- 98
2019-12-01 10:00:00 9.4 20 Sur 30 Sudoeste 0.2 -- -- 98
2019-12-01 09:00:00 9.1 16 Sur 30 Sudoeste 0.2 -- -- 98
2019-12-01 08:00:00 8.9 17 Sur 23 Sur 1.2 -- -- 98
2019-12-01 07:00:00 9 9 Sur 17 Sur 0.2 -- -- 98
2019-12-01 06:00:00 8.8 7 Sur 12 Sur 0 -- -- 97
2019-12-01 05:00:00 8.2 2 Sur 15 Sudoeste 0 -- -- 96
2019-12-01 04:00:00 8.4 11 Sudoeste 17 Oeste 0 -- -- 95
2019-12-01 03:00:00 8.8 4 Sudoeste 8 Sur 0 -- -- 93
2019-12-01 02:00:00 9.1 0 Calma 6 Noroeste 0 -- -- 93
2019-12-01 01:00:00 8.8 7 Noroeste 15 Oeste 0 -- -- 94
2019-12-01 00:00:00 9.3 8 Sudoeste 20 Sudoeste 0 -- -- 94
2019-11-30 23:00:00 10.3 8 Sudoeste 21 Oeste 0 -- -- 92
2019-11-30 22:00:00 10.8 12 Oeste 19 Oeste 0 -- -- 91
2019-11-30 21:00:00 11.1 15 Noroeste 35 Oeste 0.2 -- -- 93
2019-11-30 20:00:00 11.9 31 Noroeste 44 Noroeste 1.4 -- -- 92
2019-11-30 19:00:00 13.4 13 Sudoeste 23 Sudoeste 0 -- -- 90
2019-11-30 18:00:00 13.9 23 Sudoeste 33 Sudoeste 0 -- -- 85
2019-11-30 17:00:00 14.4 22 Sudoeste 32 Sudoeste 0 -- -- 80
2019-11-30 16:00:00 14.6 21 Sudoeste 27 Sudoeste 0 -- -- 79
2019-11-30 15:00:00 14.6 20 Sudoeste 31 Sudoeste 0 -- -- 77
2019-11-30 14:00:00 14.7 19 Sudoeste 27 Sudoeste 0 -- -- 79
2019-11-30 13:00:00 13.7 9 Sur 14 Sur 0 -- -- 88
2019-11-30 12:00:00 12.9 8 Sudoeste 12 Sudoeste 0 -- -- 96
2019-11-30 11:00:00 11.9 3 Sudeste 6 Sur 0 -- -- 98
2019-11-30 10:00:00 10.9 2 Sudoeste 10 Sudoeste 0 -- -- 98
2019-11-30 09:00:00 11.2 5 Sur 9 Sur 0 -- -- 98
2019-11-30 08:00:00 11.1 2 Nordeste 6 Nordeste 0 -- -- 98
2019-11-30 07:00:00 11 2 Este 5 Este 0 -- -- 96
2019-11-30 06:00:00 11.4 0 Calma 5 Sudoeste 0 -- -- 96
2019-11-30 05:00:00 11.6 4 Sudoeste 6 Sudoeste 0 -- -- 96
2019-11-30 04:00:00 11.6 2 Noroeste 4 Nordeste 0 -- -- 95
2019-11-30 03:00:00 12.1 2 Sudoeste 8 Sur 0 -- -- 93
2019-11-30 02:00:00 12.7 4 Sudeste 4 Sudeste 0 -- -- 93
2019-11-30 01:00:00 13.4 0 Calma 5 Sudoeste 0 -- -- 92
2019-11-30 00:00:00 13.5 3 Noroeste 4 Noroeste 0 -- -- 90
2019-11-29 23:00:00 13.4 0 Calma 4 Sudoeste 0 -- -- 91
2019-11-29 22:00:00 13.5 0 Calma 3 Sudoeste 0 -- -- 90
2019-11-29 21:00:00 14 0 Calma 4 Sudoeste 0 -- -- 87
2019-11-29 20:00:00 14.5 2 Sudoeste 8 Sudoeste 0 -- -- 87
2019-11-29 19:00:00 14.8 5 Sudoeste 7 Sudoeste 0 -- -- 86
2019-11-29 18:00:00 15.2 5 Oeste 15 Sudoeste 0 -- -- 84
2019-11-29 17:00:00 15.6 12 Sudoeste 17 Sudoeste 0 -- -- 82
2019-11-29 16:00:00 15.7 15 Oeste 23 Sudoeste 0 -- -- 79
2019-11-29 15:00:00 15.9 12 Oeste 20 Sudoeste 0 -- -- 78
2019-11-29 14:00:00 16 10 Sudoeste 15 Sudoeste 0 -- -- 79
2019-11-29 13:00:00 15 9 Sudoeste 18 Sudoeste 0 -- -- 85
2019-11-29 12:00:00 14.5 12 Sudoeste 16 Sudoeste 0 -- -- 89
2019-11-29 11:00:00 13.2 2 Oeste 11 Sudoeste 0 -- -- 94
2019-11-29 10:00:00 12.5 4 Oeste 6 Sudoeste 0 -- -- 96
2019-11-29 09:00:00 12 4 Sudoeste 11 Sudoeste 0 -- -- 96
2019-11-29 08:00:00 12.1 7 Sudoeste 14 Sudoeste 0 -- -- 96
2019-11-29 07:00:00 12.1 12 Sudoeste 20 Sudoeste 0 -- -- 97
2019-11-29 06:00:00 12.3 12 Sudoeste 18 Sudoeste 0 -- -- 97
2019-11-29 05:00:00 12.2 9 Sur 11 Sudoeste 0 -- -- 96
2019-11-29 04:00:00 12.3 8 Sur 13 Sur 0 -- -- 95
2019-11-29 03:00:00 12.4 4 Oeste 12 Sudoeste 0 -- -- 95
2019-11-29 02:00:00 12.6 11 Sudoeste 14 Sudoeste 0 -- -- 94
2019-11-29 01:00:00 12.6 9 Sudoeste 14 Sudoeste 0 -- -- 93
2019-11-29 00:00:00 12.8 6 Sur 13 Sur 0 -- -- 91
2019-11-28 23:00:00 12.7 5 Sur 9 Sudoeste 0 -- -- 90
2019-11-28 22:00:00 12.9 4 Sur 7 Sudoeste 0 -- -- 89
2019-11-28 21:00:00 12.9 3 Sudoeste 9 Oeste 0 -- -- 90
2019-11-28 20:00:00 12.9 6 Sudoeste 9 Sudoeste 0 -- -- 91
2019-11-28 19:00:00 12.5 3 Este 7 Oeste 0 -- -- 93
2019-11-28 18:00:00 12.5 2 Oeste 22 Oeste 0.2 -- -- 92
2019-11-28 17:00:00 13.3 16 Oeste 24 Sudoeste 0 -- -- 90
2019-11-28 16:00:00 14.4 12 Sudoeste 20 Sudoeste 0 -- -- 79
2019-11-28 15:00:00 14.1 13 Sudoeste 24 Sudoeste 0 -- -- 81
2019-11-28 14:00:00 14.4 15 Sudoeste 23 Sudoeste 0 -- -- 80
2019-11-28 13:00:00 12.7 7 Sur 17 Sur 0 -- -- 90
2019-11-28 12:00:00 11.2 4 Sur 8 Sur 0 -- -- 98
2019-11-28 11:00:00 10.4 2 Sudeste 8 Nordeste 0 -- -- 98
2019-11-28 10:00:00 9.9 5 Nordeste 8 Este 0 -- -- 98
2019-11-28 09:00:00 9.4 4 Este 6 Este 0 -- -- 98
2019-11-28 08:00:00 9 3 Noroeste 8 Oeste 0 -- -- 98
2019-11-28 07:00:00 9 5 Oeste 10 Oeste 0 -- -- 98
2019-11-28 06:00:00 9 4 Sudoeste 8 Oeste 0 -- -- 98
2019-11-28 05:00:00 8.4 3 Nordeste 5 Sudoeste 0 -- -- 97
2019-11-28 04:00:00 8.6 0 Calma 7 Sur 0 -- -- 96
2019-11-28 03:00:00 9 6 Sur 8 Sur 0 -- -- 94
2019-11-28 02:00:00 9.2 0 Calma 5 Sudeste 0 -- -- 94
2019-11-28 01:00:00 9.5 0 Calma 8 Este 0 -- -- 92
2019-11-28 00:00:00 9.8 3 Noroeste 10 Sudoeste 0 -- -- 89
2019-11-27 23:00:00 10.5 3 Sudoeste 6 Oeste 0 -- -- 86
2019-11-27 22:00:00 11 3 Noroeste 5 Oeste 0 -- -- 83
2019-11-27 21:00:00 11.7 6 Oeste 18 Oeste 0 -- -- 80
2019-11-27 20:00:00 12.5 12 Oeste 17 Oeste 0 -- -- 77
2019-11-27 19:00:00 12.7 8 Sudoeste 18 Sudoeste 0 -- -- 77
2019-11-27 18:00:00 13.4 13 Sudoeste 29 Oeste 0 -- -- 72
2019-11-27 17:00:00 14.6 17 Oeste 28 Oeste 0 -- -- 63
2019-11-27 16:00:00 14.5 21 Oeste 35 Oeste 0 -- -- 66
2019-11-27 15:00:00 14.8 22 Oeste 31 Oeste 0 -- -- 67
2019-11-27 14:00:00 14.8 18 Sudoeste 30 Sudoeste 0 -- -- 68
2019-11-27 06:00:00 -- -- -- -- -- -- -- -- --
2019-11-27 05:00:00 -- -- -- -- -- -- -- -- --
2019-11-27 04:00:00 11.6 17 Noroeste 31 Noroeste 0.2 -- -- 96
2019-11-27 03:00:00 12.5 19 Oeste 30 Sudoeste 0 -- -- 97
2019-11-27 02:00:00 12.6 17 Sudoeste 28 Sudoeste 0 -- -- 97
2019-11-27 01:00:00 12.8 19 Sudoeste 26 Sudoeste 0 -- -- 96
2019-11-27 00:00:00 12.5 13 Sudoeste 23 Sudoeste 0 -- -- 97
2019-11-26 23:00:00 13.1 14 Sudoeste 28 Sudoeste 0 -- -- 97
2019-11-26 22:00:00 13.6 18 Sudoeste 27 Sudoeste 0 -- -- 97
2019-11-26 21:00:00 13.9 21 Sudoeste 30 Sudoeste 0.2 -- -- 97
2019-11-26 20:00:00 13.9 11 Oeste 21 Sudoeste 1.2 -- -- 97
2019-11-26 19:00:00 13.9 8 Sudoeste 21 Sudoeste 0.2 -- -- 97
2019-11-26 18:00:00 14 17 Sudoeste 24 Sudoeste 2 -- -- 96
2019-11-26 17:00:00 14.6 13 Sudoeste 23 Sudoeste 0.6 -- -- 90
2019-11-26 16:00:00 15.1 20 Sudoeste 28 Sudoeste 0.4 -- -- 88
2019-11-26 15:00:00 15.5 18 Sudoeste 27 Sudoeste 0.4 -- -- 89
2019-11-26 14:00:00 14.9 9 Sur 21 Sudoeste 0 -- -- 94
2019-11-26 13:00:00 14.2 9 Sur 13 Sur 0.2 -- -- 96
2019-11-26 12:00:00 13.1 7 Sudeste 17 Este 0.2 -- -- 97
2019-11-26 11:00:00 12.6 9 Nordeste 16 Nordeste 0 -- -- 97
2019-11-26 10:00:00 12.2 9 Este 19 Este 0.2 -- -- 97
2019-11-26 09:00:00 12 8 Este 12 Este 0.2 -- -- 97
2019-11-26 08:00:00 12 6 Este 16 Sudeste 0 -- -- 96
2019-11-26 07:00:00 11.7 11 Este 13 Este 0 -- -- 97
2019-11-26 06:00:00 11.8 6 Este 8 Sudeste 0.2 -- -- 97
2019-11-26 05:00:00 11.5 3 Este 5 Este 0 -- -- 97
2019-11-26 04:00:00 11.3 0 Calma 4 Este 0 -- -- 97
2019-11-26 03:00:00 11.1 0 Calma 5 Sur 0 -- -- 96
2019-11-26 02:00:00 11.8 5 Sur 8 Sudeste 0 -- -- 94
2019-11-26 01:00:00 12.4 0 Calma 10 Sudoeste 0 -- -- 92
2019-11-26 00:00:00 13 3 Noroeste 6 Oeste 0 -- -- 89
2019-11-25 23:00:00 13.8 7 Oeste 14 Oeste 0 -- -- 85
2019-11-25 22:00:00 13.7 10 Noroeste 17 Oeste 0 -- -- 87
2019-11-25 21:00:00 13.8 9 Oeste 16 Oeste 0 -- -- 87
2019-11-25 20:00:00 14.1 10 Oeste 13 Oeste 0 -- -- 87
2019-11-25 19:00:00 14.2 10 Oeste 14 Oeste 0 -- -- 85
2019-11-25 18:00:00 15.2 12 Oeste 25 Sudoeste 0 -- -- 82
2019-11-25 17:00:00 16.2 15 Oeste 24 Oeste 0 -- -- 76
2019-11-25 16:00:00 16.4 21 Oeste 27 Oeste 0 -- -- 74
2019-11-25 15:00:00 16.2 17 Oeste 31 Oeste 0 -- -- 77
2019-11-25 14:00:00 16.2 20 Oeste 30 Oeste 0 -- -- 77
2019-11-25 13:00:00 15.7 12 Oeste 20 Oeste 0 -- -- 84
2019-11-25 12:00:00 14.3 12 Sudoeste 17 Sur 0.2 -- -- 95
2019-11-25 11:00:00 13.4 5 Oeste 8 Oeste 0 -- -- 97
2019-11-25 10:00:00 11.7 2 Norte 12 Nordeste 0.6 -- -- 97
2019-11-25 09:00:00 11.2 8 Nordeste 12 Nordeste 0 -- -- 97
2019-11-25 08:00:00 11.1 4 Nordeste 8 Nordeste 0.2 -- -- 97
2019-11-25 07:00:00 11 6 Nordeste 14 Este 1 -- -- 97
2019-11-25 06:00:00 10.8 8 Nordeste 17 Nordeste 1.8 -- -- 97
2019-11-25 05:00:00 10.8 8 Este 12 Este 3 -- -- 97
2019-11-25 04:00:00 10.7 8 Este 11 Este 0 -- -- 97
2019-11-25 03:00:00 10.7 6 Sudeste 13 Sur 0.2 -- -- 97
2019-11-25 02:00:00 10.6 9 Sur 17 Sur 1.2 -- -- 97
2019-11-25 01:00:00 10.7 9 Sur 22 Sudoeste 0.2 -- -- 96
2019-11-25 00:00:00 11.3 14 Sudoeste 23 Sudoeste 0 -- -- 88
2019-11-24 23:00:00 11.3 3 Sur 13 Sudoeste 0 -- -- 86
2019-11-24 22:00:00 11.4 9 Sur 12 Sur 0 -- -- 85
2019-11-24 21:00:00 11.4 4 Sur 13 Sudoeste 0 -- -- 85
2019-11-24 20:00:00 11.4 7 Sudoeste 13 Oeste 0 -- -- 83
2019-11-24 19:00:00 11.5 8 Oeste 15 Sudoeste 0 -- -- 81
2019-11-24 18:00:00 11.8 11 Sudoeste 18 Oeste 0 -- -- 79
2019-11-24 17:00:00 12.1 14 Oeste 25 Oeste 0 -- -- 74
2019-11-24 16:00:00 12.4 15 Oeste 25 Noroeste 0 -- -- 71
2019-11-24 15:00:00 12.4 15 Oeste 26 Oeste 0 -- -- 71
2019-11-24 14:00:00 12.5 9 Sudoeste 17 Sur 0 -- -- 75
2019-11-24 13:00:00 10.6 8 Sudoeste 13 Sudoeste 0 -- -- 83
2019-11-24 12:00:00 9.6 8 Sudoeste 13 Sudoeste 0 -- -- 84
2019-11-24 11:00:00 8.6 9 Sudoeste 14 Sudoeste 0 -- -- 89
2019-11-24 10:00:00 7.3 8 Noroeste 15 Noroeste 0 -- -- 93
2019-11-24 09:00:00 5.9 11 Noroeste 14 Noroeste 0 -- -- 93
2019-11-24 08:00:00 5.7 9 Oeste 17 Oeste 0 -- -- 92
2019-11-24 07:00:00 5.4 7 Oeste 21 Oeste 0 -- -- 92
2019-11-24 06:00:00 5.3 3 Sudoeste 13 Sudoeste 0 -- -- 91
2019-11-24 05:00:00 5.3 6 Oeste 16 Oeste 0 -- -- 90
2019-11-24 04:00:00 6.2 10 Oeste 17 Noroeste 0 -- -- 88
2019-11-24 03:00:00 5.9 4 Nordeste 13 Noroeste 0 -- -- 88
2019-11-24 02:00:00 6.1 3 Sudoeste 16 Noroeste 0 -- -- 88
2019-11-24 01:00:00 6.5 4 Sudoeste 18 Noroeste 0 -- -- 86
2019-11-24 00:00:00 6.9 12 Noroeste 26 Noroeste 0 -- -- 84
2019-11-23 23:00:00 7.5 15 Noroeste 25 Noroeste 0 -- -- 81
2019-11-23 22:00:00 7.7 9 Noroeste 20 Noroeste 0 -- -- 81
2019-11-23 21:00:00 8.2 6 Noroeste 24 Noroeste 0 -- -- 78
2019-11-23 20:00:00 8.6 10 Noroeste 26 Noroeste 0 -- -- 75
2019-11-23 19:00:00 10 18 Noroeste 36 Oeste 0 -- -- 70
2019-11-23 18:00:00 11.7 29 Oeste 41 Oeste 0 -- -- 64
2019-11-23 17:00:00 12.7 31 Oeste 48 Noroeste 0 -- -- 57
2019-11-23 16:00:00 12.4 28 Noroeste 45 Noroeste 0 -- -- 57
2019-11-23 15:00:00 12.9 35 Oeste 49 Noroeste 0 -- -- 56
2019-11-23 14:00:00 12.5 34 Noroeste 53 Oeste 0 -- -- 59
2019-11-23 13:00:00 11.7 36 Oeste 57 Noroeste 0 -- -- 63
2019-11-23 12:00:00 11.4 34 Noroeste 48 Noroeste 0 -- -- 66
2019-11-23 11:00:00 10.5 30 Oeste 48 Oeste 0 -- -- 70
2019-11-23 10:00:00 9.1 27 Oeste 50 Oeste 0 -- -- 76
2019-11-23 09:00:00 8.1 36 Oeste 48 Oeste 0 -- -- 78
2019-11-23 08:00:00 7.8 35 Noroeste 55 Oeste 0 -- -- 81
2019-11-23 07:00:00 8.6 34 Oeste 54 Oeste 0 -- -- 79
2019-11-23 06:00:00 9.1 37 Oeste 55 Oeste 0 -- -- 77
2019-11-23 05:00:00 9.1 28 Oeste 55 Oeste 0 -- -- 77
2019-11-23 04:00:00 9.5 36 Oeste 60 Oeste 0 -- -- 75
2019-11-23 03:00:00 9.9 36 Oeste 50 Oeste 0 -- -- 80
2019-11-23 02:00:00 10.3 31 Oeste 56 Oeste 0 -- -- 81
2019-11-23 01:00:00 10.6 42 Oeste 63 Oeste 1.6 -- -- 82
2019-11-23 00:00:00 11.1 32 Oeste 49 Oeste 0 -- -- 82
2019-11-22 23:00:00 10.6 22 Sudoeste 35 Oeste 0 -- -- 90
2019-11-22 22:00:00 10.9 23 Oeste 40 Oeste 0 -- -- 82
2019-11-22 21:00:00 12 35 Oeste 52 Oeste 0 -- -- 78
2019-11-22 20:00:00 12.5 24 Oeste 47 Oeste 0 -- -- 78
2019-11-22 19:00:00 13.3 25 Oeste 36 Oeste 0 -- -- 72
2019-11-22 18:00:00 14.1 30 Oeste 57 Oeste 0 -- -- 67
2019-11-22 17:00:00 14.8 33 Oeste 58 Oeste 0 -- -- 66
2019-11-22 16:00:00 15.8 26 Oeste 48 Oeste 0 -- -- 75
2019-11-22 15:00:00 15.1 23 Oeste 34 Sudoeste 1.2 -- -- 93
2019-11-22 14:00:00 12.7 21 Sudoeste 36 Sudoeste 5.6 -- -- 98
2019-11-22 13:00:00 12.5 15 Sur 25 Sur 2.6 -- -- 98
2019-11-22 12:00:00 10.9 12 Nordeste 19 Este 5.4 -- -- 97
2019-11-22 11:00:00 10.7 14 Este 26 Este 6.2 -- -- 97
2019-11-22 10:00:00 10.4 17 Este 26 Este 2.8 -- -- 96
2019-11-22 09:00:00 10.2 14 Este 19 Este 1 -- -- 97
2019-11-22 08:00:00 10.1 11 Este 19 Sudeste 0.6 -- -- 96
2019-11-22 07:00:00 10 7 Sudeste 15 Sudeste 0.4 -- -- 97
2019-11-22 06:00:00 9.9 10 Sudeste 17 Este 0.4 -- -- 97
2019-11-22 05:00:00 9.8 10 Sudeste 14 Sudeste 0 -- -- 96
2019-11-22 04:00:00 9.9 2 Sudeste 6 Sudeste 0.2 -- -- 95
2019-11-22 03:00:00 10 3 Sudeste 6 Sudoeste 0 -- -- 95
2019-11-22 02:00:00 10 2 Nordeste 12 Este 0 -- -- 95
2019-11-22 01:00:00 10 8 Este 18 Este 0 -- -- 95
2019-11-22 00:00:00 10 8 Este 13 Este 0 -- -- 95
2019-11-21 23:00:00 10.2 8 Este 14 Este 0 -- -- 93
2019-11-21 22:00:00 10.3 7 Nordeste 11 Nordeste 0 -- -- 91
2019-11-21 21:00:00 10.3 8 Nordeste 12 Nordeste 0 -- -- 91
2019-11-21 20:00:00 9.7 6 Nordeste 10 Nordeste 0 -- -- 94
2019-11-21 19:00:00 10.1 6 Este 8 Sudeste 0 -- -- 93
2019-11-21 18:00:00 11.2 7 Este 8 Sudeste 0 -- -- 89
2019-11-21 17:00:00 12 6 Sur 11 Sur 0 -- -- 83
2019-11-21 16:00:00 11.8 2 Sudeste 10 Sur 0 -- -- 87
2019-11-21 15:00:00 11.2 5 Sudoeste 12 Sur 0 -- -- 91
2019-11-21 14:00:00 10.6 9 Sur 13 Sur 0 -- -- 93
2019-11-21 13:00:00 10.4 3 Sur 8 Este 0.2 -- -- 93
2019-11-21 12:00:00 9.9 4 Sudeste 9 Este 0.2 -- -- 93
2019-11-21 11:00:00 9.4 7 Este 9 Este 0.2 -- -- 96
2019-11-21 10:00:00 8.9 4 Nordeste 10 Nordeste 1.6 -- -- 97
2019-11-21 09:00:00 8.7 5 Este 10 Este 2.2 -- -- 97
2019-11-21 08:00:00 8.7 5 Este 10 Este 1.4 -- -- 97
2019-11-21 07:00:00 8.6 5 Este 9 Este 0.2 -- -- 97
2019-11-21 06:00:00 8.7 4 Este 6 Este 0 -- -- 96
2019-11-21 05:00:00 8.7 0 Calma 4 Sur 0 -- -- 96
2019-11-21 04:00:00 8.6 2 Sur 4 Sudeste 0 -- -- 95
2019-11-21 03:00:00 8.7 0 Calma 5 Sur 0.2 -- -- 95
2019-11-21 02:00:00 8.7 3 Sudeste 5 Sudeste 0 -- -- 94
2019-11-21 01:00:00 8.5 4 Nordeste 9 Este 0 -- -- 94
2019-11-21 00:00:00 8.4 6 Nordeste 12 Nordeste 0.2 -- -- 93
2019-11-20 23:00:00 8.2 11 Nordeste 14 Nordeste 0 -- -- 92
2019-11-20 22:00:00 8 10 Nordeste 14 Nordeste 0 -- -- 92
2019-11-20 21:00:00 7.9 8 Este 14 Nordeste 0 -- -- 91
2019-11-20 20:00:00 7.9 6 Nordeste 13 Nordeste 0 -- -- 90
2019-11-20 19:00:00 7.8 9 Nordeste 20 Nordeste 0 -- -- 91
2019-11-20 18:00:00 7.6 13 Nordeste 21 Nordeste 0 -- -- 91
2019-11-20 17:00:00 7.5 14 Nordeste 25 Este 0.4 -- -- 94
2019-11-20 16:00:00 7.6 18 Este 25 Este 0 -- -- 93
2019-11-20 15:00:00 7.7 16 Este 23 Este 1.2 -- -- 94
2019-11-20 14:00:00 7.9 16 Este 23 Este 0.6 -- -- 94
2019-11-20 13:00:00 7.6 16 Este 27 Este 0.8 -- -- 94
2019-11-20 12:00:00 7.4 14 Este 24 Este 0.8 -- -- 94
2019-11-20 11:00:00 7 14 Este 19 Este 0 -- -- 92
2019-11-20 10:00:00 6.8 14 Este 19 Este 1 -- -- 90
2019-11-20 09:00:00 7.1 11 Este 18 Este 1 -- -- 87
2019-11-20 08:00:00 7.5 13 Este 21 Este 0 -- -- 81
2019-11-20 07:00:00 7.4 15 Este 23 Nordeste 0 -- -- 79
2019-11-20 06:00:00 7.6 16 Nordeste 22 Nordeste 0 -- -- 77
2019-11-20 05:00:00 7.4 13 Este 20 Este 0 -- -- 77
2019-11-20 04:00:00 7.6 13 Este 20 Este 0 -- -- 76
2019-11-20 03:00:00 8.4 12 Este 20 Este 0 -- -- 73
2019-11-20 02:00:00 8.4 11 Este 14 Nordeste 0 -- -- 72
2019-11-20 01:00:00 8.5 10 Este 13 Este 0 -- -- 72
2019-11-20 00:00:00 8.8 8 Nordeste 13 Nordeste 0 -- -- 74
2019-11-19 23:00:00 8.4 8 Nordeste 12 Nordeste 0 -- -- 76
2019-11-19 22:00:00 8.9 6 Nordeste 9 Nordeste 0 -- -- 74
2019-11-19 21:00:00 8.9 4 Nordeste 7 Nordeste 0 -- -- 73
2019-11-19 20:00:00 8.9 4 Nordeste 8 Nordeste 0 -- -- 74
2019-11-19 19:00:00 8.7 3 Este 5 Este 0 -- -- 80
2019-11-19 18:00:00 9.6 3 Sudoeste 4 Sur 0 -- -- 73
2019-11-19 17:00:00 10.2 2 Sur 5 Sur 0 -- -- 67
2019-11-19 16:00:00 10.3 2 Sur 8 Sur 0 -- -- 66
2019-11-19 15:00:00 10 4 Sur 9 Sudoeste 0 -- -- 69
2019-11-19 14:00:00 10.1 4 Sudoeste 9 Oeste 0 -- -- 69
2019-11-19 13:00:00 9.7 3 Sur 10 Este 0 -- -- 69
2019-11-19 12:00:00 9 7 Este 14 Este 0 -- -- 71
2019-11-19 11:00:00 8 10 Este 14 Este 0 -- -- 75
2019-11-19 10:00:00 6.8 10 Nordeste 15 Este 0 -- -- 79
2019-11-19 09:00:00 6.1 10 Este 13 Este 0 -- -- 81
2019-11-19 08:00:00 5.7 7 Este 12 Este 0 -- -- 82
2019-11-19 07:00:00 6.2 9 Este 14 Este 0 -- -- 79
2019-11-19 06:00:00 6.7 9 Este 16 Este 0 -- -- 76
2019-11-19 05:00:00 6.4 12 Este 15 Este 0 -- -- 77
2019-11-19 04:00:00 6.7 9 Este 18 Nordeste 0 -- -- 75
2019-11-19 03:00:00 7.3 14 Este 22 Este 0 -- -- 72
2019-11-19 02:00:00 7.4 13 Este 19 Este 0 -- -- 75
2019-11-19 01:00:00 6.6 10 Nordeste 14 Nordeste 0 -- -- 74
2019-11-19 00:00:00 6.9 0 Calma 8 Noroeste 0 -- -- 71
2019-11-18 23:00:00 6.8 4 Este 12 Noroeste 0 -- -- 71
2019-11-18 22:00:00 7.4 9 Noroeste 12 Noroeste 0 -- -- 68
2019-11-18 21:00:00 8.9 3 Nordeste 14 Norte 0 -- -- 62
2019-11-18 20:00:00 8.6 6 Noroeste 11 Sudoeste 0 -- -- 68
2019-11-18 19:00:00 10.1 9 Noroeste 13 Noroeste 0 -- -- 63
2019-11-18 18:00:00 11.4 8 Noroeste 21 Noroeste 0 -- -- 59
2019-11-18 17:00:00 13 10 Noroeste 18 Oeste 0 -- -- 54
2019-11-18 16:00:00 13.2 11 Noroeste 21 Oeste 0 -- -- 54
2019-11-18 15:00:00 12.9 11 Noroeste 20 Noroeste 0 -- -- 51
2019-11-18 14:00:00 12.5 11 Noroeste 19 Oeste 0 -- -- 56
2019-11-18 13:00:00 11.6 12 Oeste 20 Oeste 0 -- -- 62
2019-11-18 12:00:00 11 9 Sudoeste 13 Oeste 0 -- -- 69
2019-11-18 11:00:00 9.8 4 Sudeste 13 Este 0 -- -- 72
2019-11-18 10:00:00 7.8 5 Norte 18 Noroeste 0 -- -- 78
2019-11-18 09:00:00 6 14 Noroeste 28 Noroeste 0 -- -- 82
2019-11-18 08:00:00 5.5 22 Noroeste 35 Noroeste 0 -- -- 85
2019-11-18 07:00:00 5.5 9 Noroeste 22 Noroeste 0 -- -- 83
2019-11-18 06:00:00 5.8 23 Noroeste 44 Noroeste 0 -- -- 84
2019-11-18 05:00:00 6 33 Noroeste 45 Noroeste 0.2 -- -- 84
2019-11-18 04:00:00 5.9 30 Noroeste 41 Noroeste 0 -- -- 86
2019-11-18 03:00:00 6.4 17 Noroeste 31 Noroeste 0 -- -- 85
2019-11-18 02:00:00 7 22 Noroeste 42 Noroeste 0 -- -- 88
2019-11-18 01:00:00 7.8 23 Noroeste 34 Noroeste 0 -- -- 91
2019-11-18 00:00:00 9.1 22 Noroeste 31 Noroeste 0 -- -- 92
2019-11-17 23:00:00 10.3 20 Noroeste 35 Noroeste 0 -- -- 91
2019-11-17 22:00:00 10.9 24 Noroeste 40 Oeste 3 -- -- 94
2019-11-17 21:00:00 9 8 Noroeste 12 Sudoeste 2.6 -- -- 97
2019-11-17 20:00:00 8.6 3 Sudoeste 23 Norte 3 -- -- 97
2019-11-17 19:00:00 8.1 6 Este 10 Nordeste 0.4 -- -- 96
2019-11-17 18:00:00 8 6 Nordeste 12 Nordeste 2.2 -- -- 96
2019-11-17 17:00:00 8 8 Nordeste 12 Nordeste 0 -- -- 96
2019-11-17 16:00:00 7.9 6 Este 11 Nordeste 0 -- -- 95
2019-11-17 15:00:00 7.6 8 Este 12 Sudeste 0 -- -- 95
2019-11-17 14:00:00 7.4 9 Este 14 Nordeste 0 -- -- 93
2019-11-17 13:00:00 6.9 9 Nordeste 20 Nordeste 0 -- -- 95
2019-11-17 12:00:00 6.1 13 Nordeste 20 Nordeste 0.2 -- -- 95
2019-11-17 11:00:00 5.6 12 Este 19 Este 0.2 -- -- 96
2019-11-17 10:00:00 5.5 9 Este 12 Este 2 -- -- 96
2019-11-17 09:00:00 5.2 6 Sudeste 8 Sudeste 1.4 -- -- 95
2019-11-17 08:00:00 5 0 Calma 3 Este 0 -- -- 92
2019-11-17 07:00:00 4.5 3 Sudoeste 7 Sudoeste 0 -- -- 88
2019-11-17 06:00:00 4.7 4 Sudoeste 8 Noroeste 0 -- -- 83
2019-11-17 05:00:00 4.9 5 Oeste 12 Noroeste 0 -- -- 78
2019-11-17 04:00:00 4.6 11 Noroeste 16 Noroeste 0 -- -- 78
2019-11-17 03:00:00 4.4 13 Noroeste 20 Noroeste 0 -- -- 76
2019-11-17 02:00:00 5 15 Noroeste 19 Noroeste 0 -- -- 72
2019-11-17 01:00:00 5.2 11 Noroeste 14 Noroeste 0 -- -- 69
2019-11-17 00:00:00 6 10 Noroeste 15 Noroeste 0 -- -- 66
2019-11-16 23:00:00 7.2 6 Noroeste 12 Sudoeste 0 -- -- 60
2019-11-16 22:00:00 7 10 Sudoeste 13 Sudoeste 0 -- -- 62
2019-11-16 21:00:00 6.9 5 Oeste 17 Noroeste 0 -- -- 62
2019-11-16 20:00:00 7.5 10 Noroeste 20 Noroeste 0 -- -- 59
2019-11-16 19:00:00 7.8 6 Noroeste 16 Oeste 0 -- -- 54
2019-11-16 18:00:00 9.4 9 Noroeste 21 Noroeste 0 -- -- 50
2019-11-16 17:00:00 10.9 18 Noroeste 39 Oeste 0 -- -- 45
2019-11-16 16:00:00 11.8 25 Oeste 35 Oeste 0 -- -- 42
2019-11-16 15:00:00 12 18 Noroeste 30 Oeste 0 -- -- 43
2019-11-16 14:00:00 11.5 17 Oeste 27 Oeste 0 -- -- 44
2019-11-16 13:00:00 10 12 Oeste 18 Oeste 0 -- -- 47
2019-11-16 12:00:00 8.7 12 Oeste 19 Oeste 0 -- -- 58
2019-11-16 11:00:00 6.8 6 Sudoeste 11 Oeste 0 -- -- 66
2019-11-16 10:00:00 4.5 3 Nordeste 10 Este 0 -- -- 74
2019-11-16 09:00:00 2.4 4 Este 13 Nordeste 0 -- -- 80
2019-11-16 08:00:00 1.4 3 Este 12 Noroeste 0 -- -- 82
2019-11-16 07:00:00 2.7 4 Nordeste 7 Norte 0 -- -- 73
2019-11-16 06:00:00 3.9 5 Nordeste 24 Noroeste 0 -- -- 71
2019-11-16 05:00:00 4.8 4 Norte 22 Noroeste 0 -- -- 68
2019-11-16 04:00:00 3.6 14 Noroeste 28 Noroeste 0 -- -- 74
2019-11-16 03:00:00 3.7 29 Noroeste 39 Noroeste 0 -- -- 72
2019-11-16 02:00:00 3.2 20 Noroeste 28 Noroeste 0 -- -- 75
2019-11-16 01:00:00 3.9 9 Oeste 21 Oeste 0 -- -- 69
2019-11-16 00:00:00 3.4 12 Noroeste 20 Noroeste 0 -- -- 70
2019-11-15 23:00:00 4.7 12 Noroeste 23 Noroeste 0 -- -- 64
2019-11-15 22:00:00 4.7 13 Noroeste 17 Noroeste 0 -- -- 63
2019-11-15 21:00:00 5 7 Noroeste 17 Noroeste 0 -- -- 61
2019-11-15 20:00:00 5.9 7 Norte 19 Noroeste 0 -- -- 58
2019-11-15 19:00:00 7 12 Noroeste 24 Noroeste 0 -- -- 53
2019-11-15 18:00:00 9.2 19 Noroeste 39 Noroeste 0 -- -- 46
2019-11-15 17:00:00 10.8 28 Noroeste 39 Noroeste 0 -- -- 42
2019-11-15 16:00:00 10.5 28 Noroeste 45 Oeste 0 -- -- 46
2019-11-15 15:00:00 10.7 31 Noroeste 41 Noroeste 0 -- -- 48
2019-11-15 14:00:00 10.1 28 Noroeste 38 Oeste 0 -- -- 51
2019-11-15 13:00:00 9.7 23 Noroeste 36 Noroeste 0 -- -- 55
2019-11-15 12:00:00 8.7 26 Noroeste 44 Noroeste 0 -- -- 58
2019-11-15 11:00:00 7.4 26 Noroeste 46 Noroeste 0 -- -- 64
2019-11-15 10:00:00 5.5 39 Noroeste 48 Noroeste 0 -- -- 68
2019-11-15 09:00:00 4.6 26 Noroeste 37 Noroeste 0 -- -- 70
2019-11-15 08:00:00 3.3 26 Noroeste 37 Noroeste 0 -- -- 76
2019-11-15 07:00:00 3.5 18 Noroeste 34 Noroeste 0 -- -- 77
2019-11-15 06:00:00 4 26 Noroeste 36 Noroeste 0 -- -- 77
2019-11-15 05:00:00 4.5 23 Noroeste 32 Noroeste 0 -- -- 73
2019-11-15 04:00:00 4.6 19 Oeste 34 Noroeste 0 -- -- 73
2019-11-15 03:00:00 5 13 Noroeste 32 Noroeste 0 -- -- 75
2019-11-15 02:00:00 5.8 21 Oeste 41 Oeste 0 -- -- 76
2019-11-15 01:00:00 7.4 25 Oeste 46 Oeste 0 -- -- 63
2019-11-15 00:00:00 8 36 Oeste 56 Oeste 0 -- -- 63
2019-11-14 23:00:00 8.3 31 Oeste 58 Oeste 0 -- -- 63
2019-11-14 22:00:00 8.6 37 Oeste 62 Oeste 0 -- -- 62
2019-11-14 21:00:00 9.2 26 Oeste 60 Oeste 0 -- -- 62
2019-11-14 20:00:00 9.7 41 Oeste 69 Oeste 0 -- -- 63
2019-11-14 19:00:00 9.9 37 Oeste 59 Oeste 0 -- -- 62
2019-11-14 18:00:00 9.7 35 Oeste 58 Oeste 0 -- -- 65
2019-11-14 17:00:00 10.7 34 Oeste 59 Oeste 0 -- -- 60
2019-11-14 16:00:00 11.4 37 Oeste 60 Noroeste 0 -- -- 57
2019-11-14 15:00:00 10.9 39 Oeste 58 Oeste 0 -- -- 59
2019-11-14 14:00:00 10.3 34 Oeste 52 Oeste 0 -- -- 64
2019-11-14 13:00:00 10.1 26 Oeste 46 Oeste 0 -- -- 69
2019-11-14 12:00:00 9.7 27 Oeste 39 Oeste 0.2 -- -- 83
2019-11-14 11:00:00 8.4 22 Noroeste 43 Noroeste 0.6 -- -- 90
2019-11-14 10:00:00 7.9 30 Noroeste 51 Oeste 1.8 -- -- 90
2019-11-14 09:00:00 9.5 25 Oeste 46 Oeste 0.6 -- -- 92
2019-11-14 08:00:00 9.6 30 Oeste 40 Oeste 0.8 -- -- 92
2019-11-14 07:00:00 9.4 30 Sudoeste 43 Sudoeste 0 -- -- 94
2019-11-14 06:00:00 9.3 21 Sudoeste 31 Oeste 0 -- -- 90
2019-11-14 05:00:00 7.6 17 Oeste 28 Oeste 0 -- -- 94
2019-11-14 04:00:00 6.8 15 Sudoeste 25 Oeste 0 -- -- 93
2019-11-14 03:00:00 7.9 19 Oeste 30 Oeste 0 -- -- 85
2019-11-14 02:00:00 8.9 18 Oeste 32 Oeste 0 -- -- 78
2019-11-14 01:00:00 8.6 13 Noroeste 23 Oeste 0 -- -- 82
2019-11-14 00:00:00 10.4 17 Oeste 24 Oeste 0 -- -- 77
2019-11-13 23:00:00 10.9 13 Oeste 19 Noroeste 0 -- -- 79
2019-11-13 22:00:00 11.7 17 Noroeste 27 Oeste 0 -- -- 76
2019-11-13 21:00:00 13.8 21 Oeste 31 Oeste 0 -- -- 69
2019-11-13 20:00:00 14.1 13 Oeste 28 Oeste 0 -- -- 69
2019-11-13 19:00:00 16.2 21 Oeste 31 Oeste 0 -- -- 61
2019-11-13 18:00:00 17.9 19 Oeste 37 Oeste 0 -- -- 54
2019-11-13 17:00:00 19 30 Oeste 42 Oeste 0 -- -- 48
2019-11-13 16:00:00 19.4 33 Oeste 47 Oeste 0 -- -- 48
2019-11-13 15:00:00 19.4 29 Oeste 44 Oeste 0 -- -- 46
2019-11-13 14:00:00 18.9 33 Noroeste 47 Noroeste 0 -- -- 50
2019-11-13 13:00:00 18.6 33 Noroeste 49 Noroeste 0 -- -- 56
2019-11-13 12:00:00 17.3 31 Noroeste 41 Noroeste 0 -- -- 62
2019-11-13 11:00:00 15.8 32 Noroeste 43 Oeste 0 -- -- 71
2019-11-13 10:00:00 14.7 31 Oeste 45 Oeste 0 -- -- 81
2019-11-13 09:00:00 13.6 22 Oeste 38 Sudoeste 0 -- -- 88
2019-11-13 08:00:00 13 19 Oeste 37 Sudoeste 0 -- -- 92
2019-11-13 07:00:00 12.7 24 Oeste 35 Oeste 0 -- -- 93
2019-11-13 06:00:00 12.4 17 Oeste 27 Oeste 0 -- -- 93
2019-11-13 05:00:00 12.1 15 Oeste 26 Oeste 0.2 -- -- 93
2019-11-13 04:00:00 12.2 18 Sudoeste 31 Oeste 0 -- -- 90
2019-11-13 03:00:00 12 20 Oeste 35 Sudoeste 0 -- -- 90
2019-11-13 02:00:00 12 21 Oeste 28 Oeste 0 -- -- 88
2019-11-13 01:00:00 11.7 17 Sudoeste 32 Oeste 0 -- -- 89
2019-11-13 00:00:00 12.2 26 Oeste 37 Oeste 0 -- -- 82
2019-11-12 23:00:00 12.6 24 Oeste 37 Oeste 0 -- -- 76
2019-11-12 22:00:00 12.6 23 Oeste 31 Oeste 0 -- -- 73
2019-11-12 21:00:00 13.2 22 Oeste 33 Oeste 0 -- -- 65
2019-11-12 20:00:00 13.5 15 Oeste 28 Oeste 0 -- -- 56
2019-11-12 19:00:00 13.9 24 Oeste 32 Oeste 0 -- -- 54
2019-11-12 18:00:00 14.5 22 Noroeste 38 Noroeste 0 -- -- 49
2019-11-12 17:00:00 15.3 25 Noroeste 37 Noroeste 0 -- -- 46
2019-11-12 16:00:00 15.5 27 Noroeste 40 Oeste 0 -- -- 43
2019-11-12 15:00:00 15.1 20 Noroeste -- -- -- -- -- 41
2019-11-12 14:00:00 14.5 22 Noroeste 33 Noroeste 0 -- -- 43
2019-11-12 13:00:00 13.3 18 Noroeste 30 Oeste 0 -- -- 53
2019-11-12 12:00:00 11.8 15 Noroeste 28 Oeste 0 -- -- 63
2019-11-12 11:00:00 10.2 14 Oeste 21 Oeste 0 -- -- 70
2019-11-12 10:00:00 7.9 10 Oeste 14 Noroeste 0 -- -- 87
2019-11-12 09:00:00 6.4 7 Noroeste 8 Noroeste 0 -- -- 95
2019-11-12 08:00:00 6.3 2 Norte 6 Oeste 0 -- -- 97
2019-11-12 07:00:00 7.3 4 Oeste 5 Oeste 0 -- -- 97
2019-11-12 06:00:00 7.7 4 Este 6 Sudeste 0 -- -- 97
2019-11-12 05:00:00 8.3 2 Sudeste 13 Nordeste 0 -- -- 97
2019-11-12 04:00:00 8.3 8 Nordeste 16 Este 0 -- -- 97
2019-11-12 03:00:00 8.1 4 Noroeste 14 Noroeste 0 -- -- 91
2019-11-12 02:00:00 8.6 8 Noroeste 12 Noroeste 0 -- -- 90
2019-11-12 01:00:00 9.7 3 Sudeste 9 Este 0 -- -- 93
2019-11-12 00:00:00 10.4 6 Este 13 Noroeste 0 -- -- 89